Time;durP1;ratioP1;P1;durP2;ratioP2;P2;SDS_P1;SDS_P2;PMS_P1;PMS_P2;Temp;Humidity;BMP_temperature;BMP_pressure;BME280_temperature;BME280_humidity;BME280_pressure;Samples;Min_cycle;Max_cycle;Signal;HPM_P1;HPM_P2
2022/12/24 00:02:20;;;;;;;17.15;4.25;;;11.00;92.20;;;;;;9182064;19;20050;-65
2022/12/24 00:05:23;;;;;;;19.30;3.63;;;11.00;92.20;;;;;;9180391;19;20014;-67
2022/12/24 00:08:27;;;;;;;14.25;4.15;;;11.00;92.20;;;;;;9178260;19;20661;-65
2022/12/24 00:11:31;;;;;;;28.08;4.53;;;11.00;92.20;;;;;;9180871;19;20088;-65
2022/12/24 00:14:35;;;;;;;27.17;5.15;;;11.00;92.20;;;;;;9176963;19;20014;-66
2022/12/24 00:17:40;;;;;;;;;;;11.00;92.20;;;;;;9183359;19;20026;-64
2022/12/24 00:20:47;;;;;;;29.35;4.90;;;10.90;92.20;;;;;;9180340;19;19946;-63
2022/12/24 00:23:51;;;;;;;30.55;4.53;;;11.00;92.20;;;;;;9178886;19;20009;-65
2022/12/24 00:26:55;;;;;;;33.28;4.82;;;10.90;92.20;;;;;;9179467;19;20364;-66
2022/12/24 00:29:59;;;;;;;22.08;4.43;;;10.90;92.20;;;;;;9178531;19;20103;-65
2022/12/24 00:33:04;;;;;;;43.38;5.03;;;10.90;92.20;;;;;;9181230;19;20014;-65
2022/12/24 00:36:09;;;;;;;39.63;4.70;;;10.90;92.20;;;;;;9171334;19;20014;-65
2022/12/24 00:39:13;;;;;;;44.45;5.45;;;10.90;92.20;;;;;;9176647;19;20536;-64
2022/12/24 00:42:17;;;;;;;40.83;4.78;;;10.90;92.20;;;;;;9178289;19;20049;-66
2022/12/24 00:45:20;;;;;;;26.73;4.53;;;10.90;92.20;;;;;;9181006;19;20010;-65
2022/12/24 00:48:26;;;;;;;48.40;5.28;;;10.90;92.20;;;;;;9175790;19;20333;-64
2022/12/24 00:51:30;;;;;;;39.40;5.75;;;10.80;92.20;;;;;;9177995;19;20010;-65
2022/12/24 00:54:34;;;;;;;41.13;5.10;;;10.80;92.20;;;;;;9179621;19;20011;-66
2022/12/24 00:57:38;;;;;;;44.95;7.00;;;10.80;92.20;;;;;;9178357;19;20018;-64
2022/12/24 01:00:42;;;;;;;34.05;4.72;;;10.80;92.20;;;;;;9177856;19;20027;-64
2022/12/24 01:03:48;;;;;;;34.05;5.38;;;10.80;92.20;;;;;;9178145;19;20029;-64
2022/12/24 01:06:50;;;;;;;37.42;4.97;;;10.80;92.20;;;;;;9176885;19;20361;-66
2022/12/24 01:09:54;;;;;;;35.42;3.80;;;10.80;92.20;;;;;;9176962;19;20010;-64
2022/12/24 01:13:02;;;;;;;39.22;5.07;;;10.80;92.20;;;;;;9178744;19;20038;-64
2022/12/24 01:16:16;;;;;;;22.33;4.10;;;10.80;92.20;;;;;;9179410;19;20029;-65
2022/12/24 01:19:21;;;;;;;24.45;3.40;;;10.80;92.20;;;;;;9174481;19;20800;-65
2022/12/24 01:22:25;;;;;;;35.95;4.35;;;10.70;92.10;;;;;;9177250;19;20018;-67
2022/12/24 01:25:29;;;;;;;49.42;6.28;;;10.70;92.10;;;;;;9179096;19;20082;-65
2022/12/24 01:28:34;;;;;;;33.63;5.05;;;10.70;92.10;;;;;;9174672;19;20015;-66
2022/12/24 01:31:38;;;;;;;26.90;4.03;;;10.70;92.10;;;;;;9177938;19;20472;-64
2022/12/24 01:34:44;;;;;;;36.80;3.90;;;10.70;92.20;;;;;;9176577;19;20015;-64
2022/12/24 01:37:47;;;;;;;34.58;4.15;;;10.70;92.10;;;;;;9178026;19;20018;-64
2022/12/24 01:44:19;;;;;;;36.85;5.88;;;10.70;92.10;;;;;;9176693;19;20025;-65
2022/12/24 01:47:27;;;;;;;36.25;4.30;;;10.70;92.10;;;;;;9176963;19;20016;-64
2022/12/24 01:50:32;;;;;;;43.40;4.90;;;10.70;92.10;;;;;;9176762;19;20047;-64
2022/12/24 01:53:38;;;;;;;28.13;5.07;;;10.70;92.10;;;;;;9176462;19;20034;-64
2022/12/24 01:56:46;;;;;;;26.05;4.57;;;10.70;92.10;;;;;;9176829;19;20022;-62
2022/12/24 01:59:54;;;;;;;34.13;5.07;;;10.70;92.10;;;;;;9176731;19;20018;-64
2022/12/24 02:02:58;;;;;;;45.53;4.63;;;10.70;92.10;;;;;;9177401;19;20015;-65
2022/12/24 02:06:04;;;;;;;;;;;10.70;92.10;;;;;;9178319;19;20011;-63
2022/12/24 02:09:08;;;;;;;32.25;4.60;;;10.70;92.10;;;;;;9173855;19;20493;-65
2022/12/24 02:12:12;;;;;;;50.08;6.63;;;10.70;92.00;;;;;;9177437;19;20015;-64
2022/12/24 02:15:18;;;;;;;;;;;10.60;92.00;;;;;;9168999;19;20050;-63
2022/12/24 02:18:27;;;;;;;31.60;5.05;;;10.60;92.00;;;;;;9176208;19;19922;-65
2022/12/24 02:21:50;;;;;;;37.92;4.63;;;10.60;92.00;;;;;;9175796;19;20518;-65
2022/12/24 02:25:21;;;;;;;31.38;4.45;;;10.60;92.00;;;;;;9174607;19;20027;-65
2022/12/24 02:28:41;;;;;;;33.03;4.90;;;10.60;92.00;;;;;;9172359;19;20018;-65
2022/12/24 02:31:54;;;;;;;34.60;4.55;;;10.60;92.00;;;;;;9177214;19;20035;-67
2022/12/24 02:35:05;;;;;;;32.97;4.82;;;10.60;92.00;;;;;;9174853;19;20015;-67
2022/12/24 02:38:16;;;;;;;41.65;4.80;;;10.60;92.00;;;;;;9175437;19;20024;-63
2022/12/24 02:41:24;;;;;;;40.75;4.85;;;10.60;92.00;;;;;;9173562;19;20015;-64
2022/12/24 02:44:31;;;;;;;41.72;4.90;;;10.60;92.00;;;;;;9175655;19;20037;-65
2022/12/24 02:47:37;;;;;;;46.60;5.20;;;10.60;92.00;;;;;;9173889;19;20018;-66
2022/12/24 02:50:41;;;;;;;46.50;6.82;;;10.60;92.00;;;;;;9174665;19;20010;-65
2022/12/24 02:53:45;;;;;;;50.85;7.35;;;10.60;92.00;;;;;;9174102;19;20026;-63
2022/12/24 02:56:59;;;;;;;30.25;5.05;;;10.60;92.00;;;;;;9174955;19;20371;-63
2022/12/24 03:00:08;;;;;;;44.88;5.05;;;10.60;92.00;;;;;;9172586;19;20045;-66
2022/12/24 03:03:29;;;;;;;43.10;6.28;;;10.60;91.90;;;;;;9174796;19;20507;-64
2022/12/24 03:06:41;;;;;;;43.88;5.03;;;10.60;91.90;;;;;;9175572;19;20011;-64
2022/12/24 03:09:56;;;;;;;36.20;5.00;;;10.60;91.90;;;;;;9180412;19;20026;-64
2022/12/24 03:13:05;;;;;;;37.60;4.32;;;10.60;91.90;;;;;;9182659;19;20044;-63
2022/12/24 03:16:12;;;;;;;35.58;3.95;;;10.60;91.90;;;;;;9182398;19;20022;-64
2022/12/24 03:19:19;;;;;;;54.38;6.07;;;10.60;91.90;;;;;;9181733;19;20363;-64
2022/12/24 03:22:25;;;;;;;38.30;5.45;;;10.60;91.90;;;;;;9180817;19;20488;-65
2022/12/24 03:25:29;;;;;;;39.70;4.05;;;10.60;91.90;;;;;;9181912;19;20006;-63
2022/12/24 03:28:34;;;;;;;42.00;6.82;;;10.60;91.90;;;;;;9178636;19;21359;-65
2022/12/24 03:31:43;;;;;;;30.80;5.95;;;10.60;91.90;;;;;;9182097;19;20375;-67
2022/12/24 03:34:49;;;;;;;30.80;5.57;;;10.50;91.80;;;;;;9182806;19;20192;-65
2022/12/24 03:37:53;;;;;;;46.20;5.70;;;10.60;91.80;;;;;;9180487;19;20015;-64
2022/12/24 03:40:57;;;;;;;44.67;5.97;;;10.60;91.80;;;;;;9179528;19;20011;-66
2022/12/24 03:44:01;;;;;;;37.17;5.78;;;10.50;91.80;;;;;;9179811;19;20014;-65
2022/12/24 03:47:05;;;;;;;31.25;5.75;;;10.50;91.80;;;;;;9179549;19;20018;-67
2022/12/24 03:50:11;;;;;;;;;;;10.50;91.80;;;;;;9182374;19;20037;-64
2022/12/24 03:53:15;;;;;;;50.00;5.40;;;10.50;91.80;;;;;;9179728;19;19946;-64
2022/12/24 03:56:19;;;;;;;57.78;6.38;;;10.50;91.80;;;;;;9181011;19;20385;-64
2022/12/24 03:59:22;;;;;;;;;;;10.50;91.80;;;;;;9180947;19;20014;-63
2022/12/24 04:02:26;;;;;;;30.50;4.07;;;10.50;91.80;;;;;;9180941;19;19933;-63
2022/12/24 04:05:32;;;;;;;47.30;5.07;;;10.50;91.70;;;;;;9181480;19;20034;-63
2022/12/24 04:08:36;;;;;;;47.88;6.32;;;10.40;91.70;;;;;;9177282;19;20011;-65
2022/12/24 04:11:40;;;;;;;41.70;5.65;;;10.40;91.70;;;;;;9178772;19;20026;-64
2022/12/24 04:14:44;;;;;;;34.67;5.10;;;10.40;91.70;;;;;;9173507;19;20340;-66
2022/12/24 04:17:48;;;;;;;48.55;5.95;;;10.40;91.70;;;;;;9177806;19;20023;-64
2022/12/24 04:20:54;;;;;;;42.70;6.43;;;10.40;91.70;;;;;;9178888;19;20020;-65
2022/12/24 04:23:57;;;;;;;48.55;5.93;;;10.40;91.70;;;;;;9180284;19;20022;-63
2022/12/24 04:27:01;;;;;;;45.60;6.63;;;10.40;91.70;;;;;;9178515;19;20037;-65
2022/12/24 04:30:06;;;;;;;43.13;6.13;;;10.40;91.70;;;;;;9180526;19;20017;-64
2022/12/24 04:33:10;;;;;;;45.08;5.70;;;10.40;91.70;;;;;;9178464;19;20014;-64
2022/12/24 04:36:18;;;;;;;42.47;5.20;;;10.40;91.70;;;;;;9178404;19;20007;-66
2022/12/24 04:39:21;;;;;;;46.28;5.53;;;10.40;91.70;;;;;;9178621;19;20032;-65
2022/12/24 04:42:25;;;;;;;37.75;5.45;;;10.40;91.70;;;;;;9179450;19;20057;-67
2022/12/24 04:45:29;;;;;;;38.22;5.55;;;10.40;91.70;;;;;;9180130;19;20111;-64
2022/12/24 04:48:33;;;;;;;46.45;6.20;;;10.30;91.60;;;;;;9175805;19;20085;-64
2022/12/24 04:51:39;;;;;;;46.58;6.57;;;10.30;91.70;;;;;;9178426;19;20900;-65
2022/12/24 04:54:43;;;;;;;50.00;5.43;;;10.30;91.70;;;;;;9177924;19;20018;-64
2022/12/24 04:57:46;;;;;;;22.67;4.63;;;10.30;91.70;;;;;;9178360;19;20010;-65
2022/12/24 05:00:56;;;;;;;50.17;5.78;;;10.30;91.70;;;;;;9177683;19;20014;-67
2022/12/24 05:04:00;;;;;;;;;;;10.30;91.60;;;;;;9176111;19;20011;-64
2022/12/24 05:07:05;;;;;;;50.30;6.60;;;10.30;91.70;;;;;;9176385;19;20359;-65
2022/12/24 05:10:11;;;;;;;31.17;5.20;;;10.30;91.60;;;;;;9177730;19;20370;-64
2022/12/24 05:13:15;;;;;;;43.15;5.50;;;10.30;91.60;;;;;;9173906;19;20022;-64
2022/12/24 05:16:21;;;;;;;41.65;6.03;;;10.30;91.60;;;;;;9176083;19;20019;-65
2022/12/24 05:19:25;;;;;;;24.30;4.53;;;10.30;91.60;;;;;;9177632;19;20475;-66
2022/12/24 05:29:06;;;;;;;32.55;4.18;;;10.30;91.60;;;;;;9173115;19;20015;-66
2022/12/24 05:32:09;;;;;;;34.63;5.07;;;10.30;91.60;;;;;;9176595;19;20025;-65
2022/12/24 05:35:13;;;;;;;34.38;4.95;;;10.30;91.60;;;;;;9178902;19;20026;-63
2022/12/24 05:38:19;;;;;;;;;;;10.20;91.60;;;;;;9179531;19;20448;-63
2022/12/24 05:41:22;;;;;;;47.08;4.93;;;10.30;91.90;;;;;;9177615;19;19930;-66
2022/12/24 05:44:26;;;;;;;42.85;5.75;;;10.30;91.50;;;;;;9175699;19;20632;-63
2022/12/24 05:47:30;;;;;;;34.92;5.25;;;10.30;91.50;;;;;;9175727;19;20367;-63
2022/12/24 05:50:34;;;;;;;40.35;6.85;;;10.20;91.50;;;;;;9178410;19;20031;-63
2022/12/24 05:53:43;;;;;;;45.92;6.45;;;10.30;91.60;;;;;;9177684;19;20340;-63
2022/12/24 05:56:47;;;;;;;35.30;5.93;;;10.30;91.50;;;;;;9176890;19;20026;-65
2022/12/24 05:59:51;;;;;;;45.22;5.70;;;10.30;91.50;;;;;;9175621;19;20073;-66
2022/12/24 06:02:54;;;;;;;40.25;5.85;;;10.30;91.60;;;;;;9175694;19;20049;-65
2022/12/24 06:06:02;;;;;;;42.00;6.25;;;10.30;91.60;;;;;;9176073;19;20034;-67
2022/12/24 06:09:08;;;;;;;55.20;8.07;;;10.30;91.60;;;;;;9173841;19;20011;-64
2022/12/24 06:12:12;;;;;;;44.03;6.80;;;10.30;91.60;;;;;;9176623;19;20015;-65
2022/12/24 06:15:16;;;;;;;41.38;6.35;;;10.30;91.60;;;;;;9163890;19;20038;-64
2022/12/24 06:18:27;;;;;;;64.45;8.55;;;10.30;91.80;;;;;;9171691;19;20018;-64
2022/12/24 06:21:31;;;;;;;45.28;7.00;;;10.30;91.60;;;;;;9168383;19;20086;-66
2022/12/24 06:24:36;;;;;;;;;;;10.30;91.60;;;;;;9170187;19;20057;-67
2022/12/24 06:27:40;;;;;;;44.40;7.55;;;10.30;91.60;;;;;;9165032;19;19927;-65
2022/12/24 06:30:47;;;;;;;47.35;7.18;;;10.30;91.60;;;;;;9174552;19;20029;-64
2022/12/24 06:33:52;;;;;;;55.55;7.97;;;10.30;91.60;;;;;;9171246;19;20024;-64
2022/12/24 06:36:56;;;;;;;46.78;7.18;;;10.30;91.60;;;;;;9170510;19;20011;-65
2022/12/24 06:40:02;;;;;;;49.72;8.27;;;10.30;91.60;;;;;;9170799;19;20353;-63
2022/12/24 06:43:05;;;;;;;45.47;8.00;;;10.30;91.60;;;;;;9171194;19;20018;-63
2022/12/24 06:46:09;;;;;;;35.80;7.45;;;10.30;91.60;;;;;;9175061;19;20471;-64
2022/12/24 06:49:13;;;;;;;37.03;8.32;;;10.30;91.60;;;;;;9174565;19;20511;-64
2022/12/24 06:52:17;;;;;;;42.78;8.00;;;10.40;91.60;;;;;;9176526;19;20030;-63
2022/12/24 06:55:22;;;;;;;49.25;10.80;;;10.30;91.60;;;;;;9173301;19;20463;-65
2022/12/24 06:58:26;;;;;;;42.78;8.90;;;10.30;91.60;;;;;;9175372;19;20010;-64
2022/12/24 07:01:30;;;;;;;43.20;7.07;;;10.40;91.60;;;;;;9174638;19;20021;-65
2022/12/24 07:04:34;;;;;;;;;;;10.40;91.60;;;;;;9175127;19;20025;-65
2022/12/24 07:07:38;;;;;;;51.35;9.20;;;10.40;91.60;;;;;;9173275;19;19925;-64
2022/12/24 07:10:43;;;;;;;42.22;7.60;;;10.40;91.60;;;;;;9172723;19;20058;-64
2022/12/24 07:13:55;;;;;;;21.67;4.68;;;10.40;91.60;;;;;;9169383;19;20010;-64
2022/12/24 07:16:59;;;;;;;37.92;8.43;;;10.40;91.60;;;;;;9173660;19;20026;-67
2022/12/24 07:20:03;;;;;;;51.33;8.55;;;10.40;91.60;;;;;;9174358;19;20054;-65
2022/12/24 07:23:06;;;;;;;31.58;6.13;;;10.40;91.70;;;;;;9174886;19;20482;-63
2022/12/24 07:26:13;;;;;;;36.17;6.03;;;10.40;91.70;;;;;;9174424;19;20617;-63
2022/12/24 07:29:17;;;;;;;32.00;6.57;;;10.50;91.80;;;;;;9173179;19;20022;-66
2022/12/24 07:32:21;;;;;;;34.83;5.88;;;10.50;91.70;;;;;;9172847;19;20011;-64
2022/12/24 07:35:24;;;;;;;31.55;8.43;;;10.50;91.60;;;;;;9175245;19;20018;-63
2022/12/24 07:38:29;;;;;;;30.95;6.07;;;10.50;91.90;;;;;;9172733;19;20368;-66
2022/12/24 07:41:34;;;;;;;34.40;5.95;;;10.50;91.60;;;;;;9174238;19;20021;-65
2022/12/24 07:44:45;;;;;;;33.13;6.28;;;10.50;91.60;;;;;;9173007;19;20078;-65
2022/12/24 07:47:48;;;;;;;35.47;6.13;;;10.50;91.60;;;;;;9172476;19;20026;-64
2022/12/24 07:50:53;;;;;;;44.67;7.60;;;10.50;91.60;;;;;;9173130;19;20019;-65
2022/12/24 07:53:56;;;;;;;31.20;6.35;;;10.50;91.70;;;;;;9178534;19;20035;-64
2022/12/24 07:57:02;;;;;;;32.60;7.30;;;10.50;91.60;;;;;;9180406;19;20011;-65
2022/12/24 08:00:07;;;;;;;34.92;6.55;;;10.50;91.70;;;;;;9180842;19;20019;-64
2022/12/24 08:03:18;;;;;;;43.67;6.82;;;10.50;91.60;;;;;;9181156;19;20033;-65
2022/12/24 08:06:22;;;;;;;43.13;6.05;;;10.50;91.60;;;;;;9181726;19;20010;-65
2022/12/24 08:09:25;;;;;;;;;;;10.50;91.60;;;;;;9179775;19;20329;-64
2022/12/24 08:12:31;;;;;;;36.10;6.43;;;10.60;91.70;;;;;;9181865;19;20719;-65
2022/12/24 08:15:35;;;;;;;30.77;4.97;;;10.60;91.60;;;;;;9172016;19;20397;-65
2022/12/24 08:18:39;;;;;;;31.77;5.25;;;10.60;91.60;;;;;;9180360;19;20011;-65
2022/12/24 08:21:42;;;;;;;31.20;6.50;;;10.50;91.60;;;;;;9178942;19;20015;-66
2022/12/24 08:24:46;;;;;;;29.98;5.47;;;10.60;91.60;;;;;;9181603;19;20368;-66
2022/12/24 08:27:52;;;;;;;37.20;6.15;;;10.50;91.60;;;;;;9179902;19;20030;-66
2022/12/24 08:30:56;;;;;;;37.40;6.43;;;10.60;91.60;;;;;;9181328;19;20014;-66
2022/12/24 08:33:59;;;;;;;;;;;10.60;91.60;;;;;;9181469;19;20022;-64
2022/12/24 08:37:03;;;;;;;42.22;9.32;;;10.50;91.60;;;;;;9180637;19;19914;-66
2022/12/24 08:40:09;;;;;;;53.72;7.97;;;10.60;91.60;;;;;;9179425;19;20003;-64
2022/12/24 08:43:14;;;;;;;43.28;5.97;;;10.60;91.60;;;;;;9178613;19;20014;-66
2022/12/24 08:46:18;;;;;;;36.13;6.32;;;10.60;91.70;;;;;;9179584;19;20021;-66
2022/12/24 08:49:22;;;;;;;34.22;6.70;;;10.60;91.70;;;;;;9176415;19;20121;-65
2022/12/24 08:52:26;;;;;;;;;;;10.60;91.70;;;;;;9181355;19;20045;-64
2022/12/24 08:55:29;;;;;;;37.72;6.25;;;10.60;91.70;;;;;;9180662;19;19919;-65
2022/12/24 08:58:35;;;;;;;37.28;7.03;;;10.60;91.60;;;;;;9180409;19;20018;-65
2022/12/24 09:01:39;;;;;;;34.47;5.72;;;10.70;91.70;;;;;;9180510;19;20010;-66
2022/12/24 09:04:43;;;;;;;54.70;6.88;;;10.60;91.70;;;;;;9179829;19;20383;-65
2022/12/24 09:07:47;;;;;;;42.97;6.55;;;10.70;91.70;;;;;;9179254;19;20030;-65
2022/12/24 09:10:51;;;;;;;41.08;5.75;;;10.70;91.70;;;;;;9178269;19;20018;-64
2022/12/24 09:13:57;;;;;;;45.25;5.38;;;10.70;91.70;;;;;;9173128;19;20018;-63
2022/12/24 09:17:01;;;;;;;41.38;6.55;;;10.70;91.70;;;;;;9174856;19;20038;-69
2022/12/24 09:20:05;;;;;;;44.28;7.97;;;10.70;91.70;;;;;;9176429;19;20003;-64
2022/12/24 09:23:09;;;;;;;52.80;6.55;;;10.70;91.70;;;;;;9178686;19;20026;-64
2022/12/24 09:26:17;;;;;;;46.33;6.82;;;10.70;91.70;;;;;;9175966;19;20041;-64
2022/12/24 09:29:22;;;;;;;67.68;6.97;;;10.80;91.70;;;;;;9175605;19;20675;-63
2022/12/24 09:32:26;;;;;;;45.88;9.45;;;10.80;91.80;;;;;;9176898;19;20003;-65
2022/12/24 09:35:30;;;;;;;52.75;7.05;;;10.80;91.70;;;;;;9178583;19;20033;-63
2022/12/24 09:38:35;;;;;;;39.88;7.85;;;10.80;91.70;;;;;;9176875;19;20038;-65
2022/12/24 09:41:48;;;;;;;45.45;7.90;;;10.80;91.70;;;;;;9176327;19;20014;-66
2022/12/24 09:45:00;;;;;;;58.50;6.23;;;10.80;91.70;;;;;;9171729;19;20038;-67
2022/12/24 09:48:11;;;;;;;55.00;8.25;;;10.90;91.70;;;;;;9175761;19;20034;-64
2022/12/24 09:51:24;;;;;;;56.65;6.93;;;10.80;91.70;;;;;;9175230;19;20014;-63
2022/12/24 09:54:31;;;;;;;41.42;7.80;;;10.90;91.80;;;;;;9167777;19;20022;-65
2022/12/24 09:57:39;;;;;;;39.38;6.47;;;10.90;91.70;;;;;;9170172;19;20022;-65
2022/12/24 10:00:45;;;;;;;60.63;7.63;;;10.90;91.70;;;;;;9168640;19;20018;-64
2022/12/24 10:03:53;;;;;;;41.08;7.10;;;10.90;91.70;;;;;;9167579;19;20014;-67
2022/12/24 10:07:06;;;;;;;37.22;7.07;;;11.00;91.70;;;;;;9168221;19;20523;-65
2022/12/24 10:10:21;;;;;;;53.65;8.05;;;10.90;91.70;;;;;;9169435;19;20019;-66
2022/12/24 10:13:40;;;;;;;40.92;6.43;;;11.00;91.70;;;;;;9170697;19;20018;-65
2022/12/24 10:16:55;;;;;;;38.55;6.90;;;11.00;91.70;;;;;;9174098;19;20018;-64
2022/12/24 10:20:15;;;;;;;52.10;6.70;;;11.00;91.70;;;;;;9176444;19;20792;-64
2022/12/24 10:23:24;;;;;;;45.40;6.97;;;11.00;91.70;;;;;;9176854;19;20022;-64
2022/12/24 10:26:31;;;;;;;41.08;8.52;;;11.10;91.70;;;;;;9174896;19;20019;-64
2022/12/24 10:29:40;;;;;;;36.58;6.45;;;11.10;91.70;;;;;;9173693;19;20022;-62
2022/12/24 10:32:47;;;;;;;51.90;7.35;;;11.10;91.70;;;;;;9173429;19;20546;-65
2022/12/24 10:35:55;;;;;;;44.17;6.38;;;11.10;91.70;;;;;;9174776;19;20046;-66
2022/12/24 10:38:59;;;;;;;32.03;5.45;;;11.10;91.70;;;;;;9174934;19;20019;-65
2022/12/24 10:42:02;;;;;;;;;;;11.10;91.70;;;;;;9172384;19;20014;-63
2022/12/24 10:45:08;;;;;;;33.10;5.57;;;11.10;91.60;;;;;;9174316;19;19923;-64
2022/12/24 10:48:20;;;;;;;55.40;8.15;;;11.10;91.60;;;;;;9174282;19;20010;-65
2022/12/24 10:51:34;;;;;;;52.60;8.60;;;11.20;91.60;;;;;;9174279;19;20018;-64
2022/12/24 10:54:39;;;;;;;38.72;6.20;;;11.20;91.60;;;;;;9174914;19;20353;-66
2022/12/24 10:57:44;;;;;;;46.33;6.97;;;11.20;91.60;;;;;;9174626;19;20034;-65
2022/12/24 11:00:52;;;;;;;51.70;8.52;;;11.10;91.60;;;;;;9175000;19;20015;-64
2022/12/24 11:04:03;;;;;;;49.75;6.53;;;11.20;91.60;;;;;;9173250;19;20341;-64
2022/12/24 11:07:08;;;;;;;36.53;5.35;;;11.20;91.60;;;;;;9171691;19;20090;-65
2022/12/24 11:10:24;;;;;;;54.45;8.13;;;11.20;91.60;;;;;;9168390;19;20017;-64
2022/12/24 11:13:30;;;;;;;32.65;5.45;;;11.30;91.60;;;;;;9168188;19;20022;-65
2022/12/24 11:16:51;;;;;;;43.78;7.30;;;11.20;91.60;;;;;;9172676;19;20031;-63
2022/12/24 11:19:57;;;;;;;38.00;6.10;;;11.30;91.60;;;;;;9171807;19;20055;-64
2022/12/24 11:23:01;;;;;;;41.83;5.30;;;11.30;91.60;;;;;;9173093;19;20026;-63
2022/12/24 11:26:05;;;;;;;38.58;4.95;;;11.30;91.60;;;;;;9172801;19;20014;-63
2022/12/24 11:29:17;;;;;;;;;;;11.40;91.60;;;;;;9178732;19;20021;-62
2022/12/24 11:32:22;;;;;;;39.13;5.68;;;11.40;91.60;;;;;;9181305;19;19926;-65
2022/12/24 11:35:29;;;;;;;34.75;6.63;;;11.40;91.60;;;;;;9172768;19;20482;-64
2022/12/24 11:38:35;;;;;;;28.10;4.80;;;11.50;91.60;;;;;;9176919;19;20010;-64
2022/12/24 11:41:39;;;;;;;31.33;5.03;;;11.50;91.60;;;;;;9179709;19;20018;-64
2022/12/24 11:44:49;;;;;;;29.15;5.45;;;11.50;91.50;;;;;;9181509;19;20022;-64
2022/12/24 11:47:54;;;;;;;30.55;4.60;;;11.60;91.50;;;;;;9181541;19;20467;-65
2022/12/24 11:51:02;;;;;;;32.88;5.03;;;11.60;91.40;;;;;;9180421;19;20018;-66
2022/12/24 11:54:15;;;;;;;29.35;4.13;;;11.60;91.40;;;;;;9181120;19;20021;-65
2022/12/24 11:57:21;;;;;;;28.50;4.70;;;11.60;91.40;;;;;;9180804;19;20022;-63
2022/12/24 12:00:26;;;;;;;37.72;5.63;;;11.70;91.40;;;;;;9181852;19;20014;-65
2022/12/24 12:03:35;;;;;;;36.47;6.68;;;11.70;91.40;;;;;;9180839;19;20018;-63
2022/12/24 12:06:45;;;;;;;30.10;4.82;;;11.80;91.40;;;;;;9179228;19;20027;-63
2022/12/24 12:09:51;;;;;;;42.22;6.55;;;11.80;91.30;;;;;;9176298;19;20014;-63
2022/12/24 12:13:01;;;;;;;43.10;6.43;;;11.80;91.30;;;;;;9180594;19;20014;-69
2022/12/24 12:16:17;;;;;;;31.08;6.88;;;11.90;91.30;;;;;;9182624;19;20015;-67
2022/12/24 12:19:23;;;;;;;42.92;7.70;;;11.90;91.20;;;;;;9180848;19;20018;-70
2022/12/24 12:22:39;;;;;;;27.02;5.50;;;11.90;91.20;;;;;;9176474;19;20019;-69
2022/12/24 12:25:50;;;;;;;40.60;5.45;;;11.90;91.20;;;;;;9180188;19;20010;-70
2022/12/24 12:28:57;;;;;;;32.95;7.45;;;12.00;91.20;;;;;;9173201;19;20057;-71
2022/12/24 12:32:07;;;;;;;31.50;5.53;;;12.00;91.10;;;;;;9172580;19;20011;-73
2022/12/24 12:35:19;;;;;;;38.78;5.97;;;12.00;91.10;;;;;;9173489;19;20049;-66
2022/12/24 12:38:27;;;;;;;45.28;6.45;;;12.00;91.00;;;;;;9170627;19;20018;-70
2022/12/24 12:41:45;;;;;;;32.17;5.90;;;11.90;91.00;;;;;;9174150;19;20054;-64
2022/12/24 12:45:13;;;;;;;28.70;5.10;;;11.90;91.00;;;;;;9180926;19;20018;-63
2022/12/24 12:48:36;;;;;;;26.83;5.30;;;11.90;90.90;;;;;;9178379;19;20018;-64
2022/12/24 12:51:49;;;;;;;30.50;5.18;;;11.90;90.90;;;;;;9180724;19;20037;-64
2022/12/24 12:55:15;;;;;;;38.03;5.43;;;11.90;90.90;;;;;;9179786;19;20471;-63
2022/12/24 12:58:32;;;;;;;32.00;5.50;;;11.90;90.90;;;;;;9177102;19;20083;-65
2022/12/24 13:01:43;;;;;;;60.10;5.68;;;11.80;90.90;;;;;;9173001;19;20018;-67
2022/12/24 13:05:20;;;;;;;28.65;5.18;;;11.80;90.90;;;;;;9176644;19;20029;-64
2022/12/24 13:08:38;;;;;;;29.65;4.95;;;11.80;90.80;;;;;;9177889;19;20019;-63
2022/12/24 13:12:00;;;;;;;20.38;4.30;;;11.70;90.80;;;;;;9177856;19;20447;-66
2022/12/24 13:15:25;;;;;;;29.60;3.85;;;11.70;90.80;;;;;;9172383;19;20388;-64
2022/12/24 13:18:50;;;;;;;27.73;4.50;;;11.70;90.80;;;;;;9178049;19;20018;-65
2022/12/24 13:21:57;;;;;;;40.53;4.63;;;11.70;90.80;;;;;;9179116;19;20011;-66
2022/12/24 13:25:00;;;;;;;28.35;4.60;;;11.60;90.70;;;;;;9175273;19;20022;-64
2022/12/24 13:28:34;;;;;;;31.90;4.70;;;11.60;90.70;;;;;;9169515;19;20010;-69
2022/12/24 13:31:38;;;;;;;23.73;4.40;;;11.60;90.70;;;;;;9171428;19;20019;-66
2022/12/24 13:34:52;;;;;;;25.05;5.03;;;11.60;90.70;;;;;;9178530;19;20035;-63
2022/12/24 13:38:43;;;;;;;24.50;4.88;;;11.50;90.70;;;;;;9178831;19;20768;-64
2022/12/24 13:41:58;;;;;;;26.38;5.07;;;11.50;90.70;;;;;;9178932;19;20018;-64
2022/12/24 13:45:32;;;;;;;25.88;4.80;;;11.50;90.70;;;;;;9179567;19;20018;-63
2022/12/24 13:48:36;;;;;;;33.80;5.97;;;11.40;90.70;;;;;;9175894;19;20011;-63
2022/12/24 13:51:40;;;;;;;29.92;6.88;;;11.40;90.70;;;;;;9172924;19;20018;-66
2022/12/24 13:54:44;;;;;;;;;;;11.40;90.70;;;;;;9167811;19;20014;-65
2022/12/24 13:57:58;;;;;;;35.13;7.70;;;11.30;90.70;;;;;;9173201;19;19938;-63
2022/12/24 14:01:03;;;;;;;20.63;3.40;;;11.40;90.70;;;;;;9174986;19;20023;-66
2022/12/24 14:04:11;;;;;;;24.52;4.82;;;11.30;90.70;;;;;;9171176;19;20820;-64
2022/12/24 14:07:21;;;;;;;26.90;4.85;;;11.30;90.70;;;;;;9175538;19;20002;-65
2022/12/24 14:10:28;;;;;;;17.85;3.85;;;11.30;90.70;;;;;;9171453;19;20050;-62
2022/12/24 14:14:08;;;;;;;21.13;3.78;;;11.30;90.70;;;;;;9170362;19;20022;-63
2022/12/24 14:17:23;;;;;;;12.40;3.20;;;11.30;90.60;;;;;;9174016;19;20078;-64
2022/12/24 14:20:26;;;;;;;25.75;3.42;;;11.30;90.60;;;;;;9177837;19;20482;-66
2022/12/24 14:23:53;;;;;;;26.10;4.57;;;11.30;90.60;;;;;;9174555;19;20017;-66
2022/12/24 14:27:00;;;;;;;24.30;4.00;;;11.30;90.60;;;;;;9172189;19;20026;-65
2022/12/24 14:30:07;;;;;;;30.08;4.55;;;11.20;90.50;;;;;;9171452;19;20027;-64
2022/12/24 14:33:32;;;;;;;19.80;2.92;;;11.20;90.50;;;;;;9174990;19;20023;-63
2022/12/24 14:36:36;;;;;;;;;;;11.20;90.70;;;;;;9154744;19;20019;-63
2022/12/24 14:39:44;;;;;;;17.95;3.63;;;11.10;90.50;;;;;;9177311;19;20355;-64
2022/12/24 14:42:55;;;;;;;16.05;3.45;;;11.10;90.50;;;;;;9175376;19;20023;-64
2022/12/24 14:46:07;;;;;;;19.80;3.60;;;11.10;90.50;;;;;;9175916;19;20027;-64
2022/12/24 14:49:24;;;;;;;24.92;4.80;;;11.10;90.40;;;;;;9175096;19;20062;-65
2022/12/24 14:52:36;;;;;;;23.15;3.72;;;11.00;90.30;;;;;;9176735;19;20014;-63
2022/12/24 14:55:59;;;;;;;20.63;2.53;;;11.00;90.30;;;;;;9175574;19;20351;-65
2022/12/24 15:06:25;;;;;;;32.42;3.85;;;10.90;90.30;;;;;;9145896;19;20105;-69
2022/12/24 15:09:33;;;;;;;24.83;4.22;;;10.90;90.30;;;;;;9154442;19;20011;-69
2022/12/24 15:12:41;;;;;;;21.23;4.68;;;10.80;90.20;;;;;;9176851;19;20015;-70
2022/12/24 15:15:47;;;;;;;26.83;4.95;;;10.80;90.20;;;;;;9182320;19;20011;-68
2022/12/24 15:18:59;;;;;;;23.92;3.85;;;10.80;90.20;;;;;;9184848;19;20031;-68
2022/12/24 15:22:10;;;;;;;21.50;4.03;;;10.80;90.20;;;;;;9182489;19;20057;-67
2022/12/24 15:25:23;;;;;;;21.65;4.20;;;10.70;90.20;;;;;;9184666;19;20018;-68
2022/12/24 15:28:27;;;;;;;26.67;4.65;;;10.70;90.40;;;;;;9170518;19;20057;-68
2022/12/24 15:31:32;;;;;;;17.48;3.28;;;10.70;90.10;;;;;;9154988;19;20911;-68
2022/12/24 15:34:38;;;;;;;22.35;3.50;;;10.60;90.10;;;;;;9157799;19;20011;-68
2022/12/24 15:37:44;;;;;;;21.75;3.67;;;10.60;90.10;;;;;;9174173;19;20029;-68
2022/12/24 15:40:50;;;;;;;17.45;3.53;;;10.50;90.10;;;;;;9172579;19;20019;-70
2022/12/24 15:43:55;;;;;;;22.65;4.68;;;10.50;90.10;;;;;;9176676;19;20022;-68
2022/12/24 15:47:00;;;;;;;18.35;3.60;;;10.40;90.10;;;;;;9174736;19;20015;-68
2022/12/24 15:50:06;;;;;;;17.50;3.88;;;10.40;90.10;;;;;;9173290;19;20022;-68
2022/12/24 15:53:15;;;;;;;33.95;5.65;;;10.40;90.10;;;;;;9174235;19;20025;-68
2022/12/24 15:56:34;;;;;;;22.90;5.10;;;10.30;90.10;;;;;;9165868;19;20015;-68
2022/12/24 15:59:38;;;;;;;22.17;4.30;;;10.20;90.00;;;;;;9168858;19;20022;-69
2022/12/24 16:02:43;;;;;;;27.35;5.18;;;10.20;90.10;;;;;;9162943;19;20389;-67
2022/12/24 16:05:48;;;;;;;17.38;3.45;;;10.20;90.30;;;;;;9164917;19;20019;-68
2022/12/24 16:08:55;;;;;;;20.67;4.75;;;10.10;90.10;;;;;;9170738;19;20040;-70
2022/12/24 16:11:59;;;;;;;20.60;4.38;;;10.10;90.10;;;;;;9168995;19;20035;-67
2022/12/24 16:15:15;;;;;;;24.15;5.97;;;10.00;90.10;;;;;;9168080;19;20447;-70
2022/12/24 16:18:24;;;;;;;22.58;5.28;;;10.00;90.10;;;;;;9170382;19;20014;-69
2022/12/24 16:21:32;;;;;;;24.77;5.90;;;9.90;90.10;;;;;;9174742;19;20029;-69
2022/12/24 16:24:38;;;;;;;31.73;7.90;;;9.90;90.10;;;;;;9174452;19;20019;-68
2022/12/24 16:27:42;;;;;;;33.20;10.30;;;9.80;90.10;;;;;;9174571;19;20014;-70